createdAt,value
2022-11-05T00:02:41.857Z,7.45
2022-11-05T00:05:47.245Z,9.13
2022-11-05T00:08:52.727Z,7.03
2022-11-05T00:11:58.018Z,5.62
2022-11-05T00:15:03.592Z,8.60
2022-11-05T00:17:51.147Z,10.70
2022-11-05T00:20:38.835Z,9.68
2022-11-05T00:23:43.687Z,7.87
2022-11-05T00:26:32.591Z,7.95
2022-11-05T00:29:19.792Z,10.20
2022-11-05T00:32:07.242Z,9.18
2022-11-05T00:34:54.726Z,13.98
2022-11-05T00:37:47.081Z,8.43
2022-11-05T00:40:31.062Z,9.58
2022-11-05T00:43:36.626Z,7.20
2022-11-05T00:46:24.131Z,10.32
2022-11-05T00:49:29.309Z,8.63
2022-11-05T00:52:34.606Z,9.43
2022-11-05T00:55:23.012Z,8.05
2022-11-05T00:58:12.169Z,12.88
2022-11-05T01:01:00.843Z,8.73
2022-11-05T01:03:51.712Z,6.35
2022-11-05T01:06:37.498Z,10.35
2022-11-05T01:09:24.982Z,10.45
2022-11-05T01:12:12.668Z,7.17
2022-11-05T01:15:01.978Z,7.60
2022-11-05T01:17:49.188Z,8.15
2022-11-05T01:20:36.554Z,9.58
2022-11-05T01:23:24.146Z,10.20
2022-11-05T01:26:11.594Z,10.53
2022-11-05T01:29:03.060Z,11.45
2022-11-05T01:31:50.388Z,14.10
2022-11-05T01:34:38.172Z,11.18
2022-11-05T01:37:25.629Z,16.80
2022-11-05T01:40:19.219Z,9.48
2022-11-05T01:43:09.955Z,13.22
2022-11-05T01:45:59.345Z,11.15
2022-11-05T01:48:47.651Z,11.00
2022-11-05T01:51:35.400Z,11.73
2022-11-05T01:54:25.698Z,10.93
2022-11-05T01:57:14.066Z,11.33
2022-11-05T02:00:03.467Z,12.00
2022-11-05T02:02:51.273Z,12.70
2022-11-05T02:05:41.923Z,10.32
2022-11-05T02:08:35.760Z,14.23
2022-11-05T02:11:23.513Z,14.30
2022-11-05T02:14:11.151Z,12.40
2022-11-05T02:17:24.356Z,12.60
2022-11-05T02:20:33.340Z,19.67
2022-11-05T02:23:43.493Z,14.15
2022-11-05T02:26:55.006Z,20.08
2022-11-05T02:30:03.657Z,10.65
2022-11-05T02:33:03.057Z,9.55
2022-11-05T02:36:11.615Z,13.25
2022-11-05T02:39:16.413Z,10.38
2022-11-05T02:42:29.533Z,15.50
2022-11-05T02:45:28.394Z,14.05
2022-11-05T02:48:35.524Z,16.75
2022-11-05T02:51:31.549Z,11.38
2022-11-05T02:54:22.249Z,11.55
2022-11-05T02:57:10.018Z,22.77
2022-11-05T03:00:10.381Z,12.10
2022-11-05T03:02:57.711Z,15.08
2022-11-05T03:05:51.345Z,17.95
2022-11-05T03:08:56.714Z,16.05
2022-11-05T03:12:04.201Z,28.98
2022-11-05T03:15:00.439Z,23.67
2022-11-05T03:18:03.148Z,31.70
2022-11-05T03:20:53.589Z,21.93
2022-11-05T03:23:59.073Z,28.75
2022-11-05T03:26:52.288Z,26.27
2022-11-05T03:29:45.748Z,27.05
2022-11-05T03:32:35.837Z,26.50
2022-11-05T03:35:26.124Z,30.50
2022-11-05T03:38:16.771Z,30.95
2022-11-05T03:41:07.679Z,25.62
2022-11-05T03:43:57.992Z,29.72
2022-11-05T03:46:49.261Z,31.27
2022-11-05T03:49:42.537Z,33.35
2022-11-05T03:52:32.945Z,36.65
2022-11-05T03:55:23.461Z,35.28
2022-11-05T03:58:12.238Z,33.73
2022-11-05T04:01:03.285Z,39.23
2022-11-05T04:03:51.043Z,40.85
2022-11-05T04:06:56.752Z,33.95
2022-11-05T04:10:02.363Z,38.70
2022-11-05T04:13:07.673Z,31.80
2022-11-05T04:16:14.685Z,35.40
2022-11-05T04:19:02.237Z,37.40
2022-11-05T04:22:07.613Z,54.53
2022-11-05T04:24:55.430Z,48.35
2022-11-05T04:27:43.393Z,37.42
2022-11-05T04:30:30.984Z,52.13
2022-11-05T04:33:18.887Z,56.13
2022-11-05T04:36:06.590Z,62.13
2022-11-05T04:38:54.007Z,75.52
2022-11-05T04:41:41.482Z,66.50
2022-11-05T04:44:29.096Z,72.35
2022-11-05T04:47:16.531Z,64.60
2022-11-05T04:50:04.088Z,60.92
2022-11-05T04:52:51.305Z,63.38
2022-11-05T04:55:39.015Z,65.15
2022-11-05T04:58:26.391Z,61.77
2022-11-05T05:01:33.038Z,64.97
2022-11-05T05:04:20.658Z,58.25
2022-11-05T05:07:08.228Z,60.55
2022-11-05T05:09:56.081Z,53.70
2022-11-05T05:12:43.535Z,64.65
2022-11-05T05:15:31.181Z,61.73
2022-11-05T05:18:18.679Z,68.02
2022-11-05T05:21:23.984Z,63.45
2022-11-05T05:24:17.287Z,58.10
2022-11-05T05:27:04.340Z,51.70
2022-11-05T05:29:51.782Z,60.98
2022-11-05T05:32:39.291Z,52.00
2022-11-05T05:35:26.469Z,58.52
2022-11-05T05:38:14.024Z,62.20
2022-11-05T05:41:01.284Z,61.50
2022-11-05T05:43:48.822Z,50.33
2022-11-05T05:46:36.076Z,57.85
2022-11-05T05:49:23.300Z,52.43
2022-11-05T05:52:10.991Z,51.88
2022-11-05T05:54:58.177Z,50.35
2022-11-05T05:57:45.579Z,51.00
2022-11-05T06:00:32.857Z,50.12
2022-11-05T06:03:20.722Z,53.02
2022-11-05T06:06:10.286Z,48.63
2022-11-05T06:08:57.714Z,50.92
2022-11-05T06:11:45.305Z,43.17
2022-11-05T06:14:32.712Z,49.95
2022-11-05T06:17:20.209Z,45.03
2022-11-05T06:20:08.738Z,48.78
2022-11-05T06:22:57.468Z,43.90
2022-11-05T06:25:45.114Z,37.33
2022-11-05T06:28:33.561Z,37.78
2022-11-05T06:31:21.011Z,41.83
2022-11-05T06:34:08.160Z,41.33
2022-11-05T06:36:55.865Z,41.00
2022-11-05T06:39:43.080Z,38.58
2022-11-05T06:42:30.505Z,35.83
2022-11-05T06:45:18.151Z,34.73
2022-11-05T06:48:05.575Z,33.58
2022-11-05T06:50:53.170Z,36.40
2022-11-05T06:53:40.390Z,28.42
2022-11-05T06:56:27.700Z,30.45
2022-11-05T06:59:15.524Z,35.33
2022-11-05T07:02:03.289Z,34.15
2022-11-05T07:04:50.633Z,31.50
2022-11-05T07:07:40.177Z,29.27
2022-11-05T07:10:27.432Z,39.10
2022-11-05T07:13:14.940Z,28.90
2022-11-05T07:16:02.493Z,30.15
2022-11-05T07:18:54.215Z,26.60
2022-11-05T07:21:41.740Z,24.10
2022-11-05T07:24:29.285Z,26.95
2022-11-05T07:27:17.462Z,29.25
2022-11-05T07:30:05.964Z,33.35
2022-11-05T07:32:53.018Z,22.67
2022-11-05T07:35:40.191Z,22.80
2022-11-05T07:38:27.549Z,25.43
2022-11-05T07:41:14.861Z,18.32
2022-11-05T07:44:03.864Z,22.07
2022-11-05T07:46:52.334Z,18.07
2022-11-05T07:49:39.242Z,17.02
2022-11-05T07:52:26.463Z,21.23
2022-11-05T07:55:14.108Z,15.20
2022-11-05T07:58:01.341Z,19.40
2022-11-05T08:00:48.814Z,18.12
2022-11-05T08:03:36.469Z,18.10
2022-11-05T08:06:24.048Z,16.12
2022-11-05T08:09:11.355Z,16.20
2022-11-05T08:12:02.845Z,15.10
2022-11-05T08:14:47.941Z,19.65
2022-11-05T08:17:35.697Z,19.73
2022-11-05T08:20:23.027Z,16.82
2022-11-05T08:23:11.402Z,20.20
2022-11-05T08:25:59.887Z,18.73
2022-11-05T08:28:47.050Z,16.65
2022-11-05T08:31:36.103Z,18.48
2022-11-05T08:34:23.605Z,15.83
2022-11-05T08:37:10.853Z,14.38
2022-11-05T08:39:58.128Z,10.65
2022-11-05T08:42:45.831Z,15.43
2022-11-05T08:45:33.913Z,16.20
2022-11-05T08:48:21.474Z,17.50
2022-11-05T08:51:08.816Z,19.40
2022-11-05T08:53:56.614Z,16.25
2022-11-05T08:56:43.734Z,16.10
2022-11-05T08:59:31.571Z,15.10
2022-11-05T09:02:19.102Z,12.60
2022-11-05T09:05:06.718Z,17.23
2022-11-05T09:07:59.412Z,12.18
2022-11-05T09:10:43.830Z,11.80
2022-11-05T09:13:31.273Z,14.00
2022-11-05T09:16:27.104Z,13.53
2022-11-05T09:19:14.596Z,10.32
2022-11-05T09:22:02.083Z,11.20
2022-11-05T09:24:49.389Z,12.50
2022-11-05T09:27:36.738Z,13.62
2022-11-05T09:30:24.165Z,14.40
2022-11-05T09:33:12.213Z,15.45
2022-11-05T09:36:00.849Z,12.65
2022-11-05T09:38:48.421Z,12.85
2022-11-05T09:41:43.467Z,12.33
2022-11-05T09:44:42.897Z,15.00
2022-11-05T09:47:39.158Z,14.80
2022-11-05T09:50:35.876Z,10.88
2022-11-05T09:53:25.195Z,12.15
2022-11-05T09:56:30.653Z,15.32
2022-11-05T09:59:27.327Z,12.60
2022-11-05T10:02:20.615Z,12.63
2022-11-05T10:05:11.336Z,14.05
2022-11-05T10:08:01.945Z,13.08
2022-11-05T10:11:04.281Z,14.75
2022-11-05T10:14:03.783Z,20.05
2022-11-05T10:16:54.898Z,16.42
2022-11-05T10:19:54.570Z,14.38
2022-11-05T10:22:45.173Z,15.13
2022-11-05T10:25:33.965Z,14.23
2022-11-05T10:28:24.240Z,14.55
2022-11-05T10:31:14.002Z,13.83
2022-11-05T10:34:04.364Z,10.80
2022-11-05T10:36:51.833Z,8.68
2022-11-05T10:39:39.338Z,10.72
2022-11-05T10:42:32.629Z,9.90
2022-11-05T10:45:46.164Z,6.80
2022-11-05T10:48:57.630Z,6.40
2022-11-05T10:51:45.878Z,4.00
2022-11-05T10:54:35.911Z,3.83
2022-11-05T10:57:32.319Z,4.33
2022-11-05T11:00:21.868Z,4.03
2022-11-05T11:03:28.887Z,7.50
2022-11-05T11:06:28.737Z,6.30
2022-11-05T11:09:22.475Z,4.20
2022-11-05T11:12:27.872Z,7.05
2022-11-05T11:15:18.359Z,7.00
2022-11-05T11:18:38.857Z,4.70
2022-11-05T11:21:26.269Z,4.78
2022-11-05T11:24:23.832Z,3.40
2022-11-05T11:27:17.353Z,4.33
2022-11-05T11:30:06.811Z,4.40
2022-11-05T11:32:57.095Z,5.62
2022-11-05T11:35:46.919Z,5.72
2022-11-05T11:38:37.211Z,6.75
2022-11-05T11:41:27.409Z,7.35
2022-11-05T11:44:21.295Z,6.85
2022-11-05T11:47:14.809Z,10.95
2022-11-05T11:50:03.256Z,3.85
2022-11-05T11:52:50.633Z,3.87
2022-11-05T11:55:37.831Z,6.72
2022-11-05T11:58:47.096Z,3.17
2022-11-05T12:02:01.433Z,4.47
2022-11-05T12:05:03.981Z,2.33
2022-11-05T12:08:14.487Z,7.03
2022-11-05T12:11:32.051Z,4.37
2022-11-05T12:14:45.179Z,1.95
2022-11-05T12:17:46.627Z,6.28
2022-11-05T12:21:09.972Z,7.03
2022-11-05T12:24:17.065Z,6.50
2022-11-05T12:27:11.230Z,4.22
2022-11-05T12:30:04.460Z,4.22
2022-11-05T12:33:17.692Z,3.15
2022-11-05T12:36:16.131Z,4.85
2022-11-05T12:39:23.155Z,3.77
2022-11-05T12:42:16.458Z,5.28
2022-11-05T12:45:06.866Z,6.67
2022-11-05T12:47:59.618Z,9.08
2022-11-05T12:50:55.189Z,4.70
2022-11-05T12:53:57.523Z,5.35
2022-11-05T12:56:47.896Z,5.72
2022-11-05T12:59:56.232Z,3.45
2022-11-05T13:02:52.113Z,7.08
2022-11-05T13:05:48.128Z,6.97
2022-11-05T13:08:58.518Z,6.87
2022-11-05T13:11:58.635Z,5.87
2022-11-05T13:14:57.848Z,2.98
2022-11-05T13:17:54.309Z,4.17
2022-11-05T13:20:44.537Z,5.90
2022-11-05T13:23:46.435Z,6.22
2022-11-05T13:26:51.972Z,5.40
2022-11-05T13:29:51.534Z,5.05
2022-11-05T13:32:42.015Z,7.12
2022-11-05T13:35:35.115Z,6.92
2022-11-05T13:38:43.736Z,6.80
2022-11-05T13:41:46.188Z,5.20
2022-11-05T13:44:51.525Z,6.83
2022-11-05T13:48:04.082Z,3.37
2022-11-05T13:50:57.471Z,4.22
2022-11-05T13:53:53.846Z,3.12
2022-11-05T13:57:08.416Z,4.75
2022-11-05T14:00:05.141Z,6.50
2022-11-05T14:03:03.739Z,4.37
2022-11-05T14:05:56.826Z,5.67
2022-11-05T14:08:47.652Z,8.35
2022-11-05T14:11:41.050Z,4.75
2022-11-05T14:14:31.279Z,3.80
2022-11-05T14:17:36.927Z,4.78
2022-11-05T14:20:33.373Z,4.08
2022-11-05T14:23:26.670Z,6.17
2022-11-05T14:26:20.162Z,4.15
2022-11-05T14:29:13.365Z,4.05
2022-11-05T14:32:10.759Z,3.83
2022-11-05T14:35:19.765Z,4.80
2022-11-05T14:38:10.298Z,6.03
2022-11-05T14:41:03.432Z,6.05
2022-11-05T14:44:00.059Z,3.83
2022-11-05T14:46:50.864Z,4.80
2022-11-05T14:49:41.138Z,8.78
2022-11-05T14:52:29.147Z,5.00
2022-11-05T14:55:25.520Z,5.58
2022-11-05T14:58:32.595Z,5.92
2022-11-05T15:01:39.857Z,5.15
2022-11-05T15:04:39.801Z,5.08
2022-11-05T15:07:38.938Z,3.70
2022-11-05T15:10:32.510Z,3.50
2022-11-05T15:13:31.824Z,6.25
2022-11-05T15:16:27.833Z,5.28
2022-11-05T15:19:24.135Z,7.45
2022-11-05T15:22:35.434Z,6.62
2022-11-05T15:25:31.763Z,4.78
2022-11-05T15:28:22.256Z,5.83
2022-11-05T15:31:18.493Z,6.37
2022-11-05T15:34:29.223Z,3.65
2022-11-05T15:37:19.926Z,3.85
2022-11-05T15:40:22.501Z,4.42
2022-11-05T15:43:26.614Z,4.03
2022-11-05T15:46:25.468Z,4.30
2022-11-05T15:49:14.375Z,6.00
2022-11-05T15:52:01.417Z,7.37
2022-11-05T15:55:08.476Z,7.78
2022-11-05T15:58:01.567Z,3.92
2022-11-05T16:00:50.288Z,6.08
2022-11-05T16:03:39.766Z,4.37
2022-11-05T16:06:30.164Z,4.25
2022-11-05T16:09:26.359Z,7.40
2022-11-05T16:12:24.163Z,4.58
2022-11-05T16:15:14.648Z,7.67
2022-11-05T16:18:02.182Z,6.15
2022-11-05T16:21:09.292Z,8.98
2022-11-05T16:23:59.470Z,6.45
2022-11-05T16:27:03.208Z,7.50
2022-11-05T16:29:38.351Z,12.98
2022-11-05T16:32:31.002Z,9.38
2022-11-05T16:35:20.702Z,8.43
2022-11-05T16:38:07.701Z,13.00
2022-11-05T16:40:54.996Z,9.48
2022-11-05T16:43:57.612Z,11.45
2022-11-05T16:46:49.863Z,8.38
2022-11-05T16:49:38.496Z,12.65
2022-11-05T16:52:26.112Z,11.12
2022-11-05T16:55:15.209Z,16.40
2022-11-05T16:58:03.065Z,11.15
2022-11-05T17:00:52.172Z,11.90
2022-11-05T17:03:39.355Z,7.60
2022-11-05T17:06:26.803Z,11.43
2022-11-05T17:09:14.501Z,6.70
2022-11-05T17:12:02.340Z,9.38
2022-11-05T17:14:51.370Z,9.83
2022-11-05T17:17:38.657Z,8.88
2022-11-05T17:20:39.872Z,10.13
2022-11-05T17:23:29.929Z,8.38
2022-11-05T17:26:17.105Z,8.03
2022-11-05T17:29:04.954Z,12.95
2022-11-05T17:31:52.297Z,10.03
2022-11-05T17:34:40.298Z,13.08
2022-11-05T17:37:27.643Z,9.23
2022-11-05T17:40:17.622Z,10.08
2022-11-05T17:43:05.616Z,11.85
2022-11-05T17:46:14.065Z,10.35
2022-11-05T17:49:01.299Z,10.65
2022-11-05T17:51:48.496Z,13.28
2022-11-05T17:54:36.094Z,10.75
2022-11-05T17:57:23.683Z,12.73
2022-11-05T18:00:11.667Z,14.47
2022-11-05T18:02:59.207Z,13.72
2022-11-05T18:05:46.830Z,13.68
2022-11-05T18:08:34.403Z,12.00
2022-11-05T18:11:21.481Z,8.98
2022-11-05T18:14:09.467Z,16.12
2022-11-05T18:16:58.701Z,9.95
2022-11-05T18:19:45.945Z,14.15
2022-11-05T18:22:33.381Z,8.53
2022-11-05T18:25:20.987Z,13.43
2022-11-05T18:28:09.061Z,15.65
2022-11-05T18:30:57.828Z,20.97
2022-11-05T18:33:45.488Z,19.07
2022-11-05T18:36:33.976Z,15.58
2022-11-05T18:39:21.598Z,20.70
2022-11-05T18:42:08.963Z,19.65
2022-11-05T18:44:56.331Z,18.10
2022-11-05T18:47:43.843Z,17.90
2022-11-05T18:50:31.680Z,14.00
2022-11-05T18:53:19.147Z,14.60
2022-11-05T18:56:12.057Z,21.37
2022-11-05T18:59:22.361Z,23.50
2022-11-05T19:01:48.610Z,24.47
2022-11-05T19:04:37.593Z,27.45
2022-11-05T19:07:25.041Z,23.77
2022-11-05T19:10:12.258Z,23.73
2022-11-05T19:12:59.837Z,26.07
2022-11-05T19:15:47.238Z,27.67
2022-11-05T19:18:34.790Z,22.50
2022-11-05T19:21:26.638Z,25.48
2022-11-05T19:24:17.304Z,24.07
2022-11-05T19:27:02.946Z,28.07
2022-11-05T19:29:50.529Z,27.93
2022-11-05T19:32:37.946Z,30.65
2022-11-05T19:35:25.378Z,28.12
2022-11-05T19:38:13.334Z,24.50
2022-11-05T19:41:09.908Z,28.47
2022-11-05T19:44:01.617Z,28.25
2022-11-05T19:46:49.075Z,26.52
2022-11-05T19:49:36.322Z,27.45
2022-11-05T19:52:26.235Z,26.23
2022-11-05T19:55:13.368Z,27.80
2022-11-05T19:58:00.735Z,25.23
2022-11-05T20:00:48.201Z,26.40
2022-11-05T20:03:37.518Z,27.93
2022-11-05T20:06:32.019Z,30.20
2022-11-05T20:09:22.208Z,26.77
2022-11-05T20:12:09.096Z,22.07
2022-11-05T20:14:56.645Z,20.05
2022-11-05T20:17:43.772Z,21.25
2022-11-05T20:20:31.228Z,24.15
2022-11-05T20:23:18.501Z,28.57
2022-11-05T20:26:07.462Z,25.30
2022-11-05T20:28:55.504Z,26.02
2022-11-05T20:31:42.973Z,28.38
2022-11-05T20:34:31.285Z,29.18
2022-11-05T20:37:18.727Z,28.20
2022-11-05T20:40:06.720Z,25.15
2022-11-05T20:42:54.095Z,24.63
2022-11-05T20:45:41.528Z,25.37
2022-11-05T20:48:34.450Z,24.37
2022-11-05T20:51:24.384Z,23.75
2022-11-05T20:54:11.931Z,24.52
2022-11-05T20:56:59.456Z,23.85
2022-11-05T20:59:46.787Z,25.17
2022-11-05T21:02:35.715Z,26.10
2022-11-05T21:05:23.346Z,23.92
2022-11-05T21:08:11.022Z,26.75
2022-11-05T21:10:58.998Z,26.95
2022-11-05T21:13:47.242Z,29.63
2022-11-05T21:16:34.325Z,30.88
2022-11-05T21:19:23.217Z,25.12
2022-11-05T21:22:11.683Z,27.42
2022-11-05T21:24:59.050Z,28.45
2022-11-05T21:27:46.470Z,31.50
2022-11-05T21:30:34.470Z,23.95
2022-11-05T21:33:21.859Z,26.95
2022-11-05T21:36:12.399Z,26.40
2022-11-05T21:38:59.808Z,25.95
2022-11-05T21:41:47.377Z,25.90
2022-11-05T21:44:34.878Z,28.10
2022-11-05T21:47:22.608Z,29.67
2022-11-05T21:50:10.432Z,29.80
2022-11-05T21:53:15.946Z,27.58
2022-11-05T21:56:28.598Z,23.80
2022-11-05T21:59:37.134Z,23.95
2022-11-05T22:02:27.750Z,31.52
2022-11-05T22:05:15.218Z,23.22
2022-11-05T22:08:03.408Z,30.20
2022-11-05T22:10:50.614Z,25.68
2022-11-05T22:13:38.298Z,22.87
2022-11-05T22:16:44.930Z,28.38
2022-11-05T22:19:32.241Z,31.37
2022-11-05T22:22:20.563Z,30.62
2022-11-05T22:25:09.406Z,28.45
2022-11-05T22:27:56.951Z,26.12
2022-11-05T22:30:44.329Z,24.72
2022-11-05T22:33:32.514Z,24.05
2022-11-05T22:36:20.276Z,22.05
2022-11-05T22:39:07.954Z,27.55
2022-11-05T22:42:01.968Z,23.25
2022-11-05T22:44:48.380Z,25.10
2022-11-05T22:47:36.240Z,20.25
2022-11-05T22:50:23.645Z,19.75
2022-11-05T22:53:11.022Z,21.93
2022-11-05T22:55:58.767Z,22.52
2022-11-05T22:58:46.875Z,23.95
2022-11-05T23:01:34.412Z,26.97
2022-11-05T23:04:21.743Z,27.55
2022-11-05T23:07:29.165Z,21.95
2022-11-05T23:10:34.753Z,26.07
2022-11-05T23:13:22.287Z,27.07
2022-11-05T23:16:27.621Z,23.42
2022-11-05T23:19:33.431Z,22.82
2022-11-05T23:22:41.604Z,23.42
2022-11-05T23:25:28.839Z,25.08
2022-11-05T23:28:17.985Z,22.30
2022-11-05T23:31:24.979Z,24.37
2022-11-05T23:34:12.231Z,22.37
2022-11-05T23:37:17.886Z,25.57
2022-11-05T23:40:07.181Z,22.98
2022-11-05T23:43:13.002Z,29.80
2022-11-05T23:46:18.352Z,27.95
2022-11-05T23:49:05.968Z,24.67
2022-11-05T23:51:53.430Z,26.87
2022-11-05T23:54:40.714Z,23.70
2022-11-05T23:57:27.930Z,20.45
